createdAt,value
2023-04-19T00:01:03.253Z,6.22
2023-04-19T00:03:30.996Z,8.13
2023-04-19T00:06:00.996Z,5.65
2023-04-19T00:08:27.982Z,7.10
2023-04-19T00:10:54.965Z,5.80
2023-04-19T00:13:22.006Z,6.43
2023-04-19T00:15:49.259Z,6.32
2023-04-19T00:18:16.263Z,9.80
2023-04-19T00:20:44.602Z,5.70
2023-04-19T00:23:11.499Z,6.57
2023-04-19T00:25:38.728Z,6.28
2023-04-19T00:28:05.633Z,10.45
2023-04-19T00:30:32.633Z,10.93
2023-04-19T00:32:59.679Z,7.15
2023-04-19T00:35:26.661Z,8.07
2023-04-19T00:37:53.921Z,7.32
2023-04-19T00:40:21.063Z,7.63
2023-04-19T00:42:48.006Z,7.82
2023-04-19T00:45:15.160Z,6.30
2023-04-19T00:47:42.163Z,8.07
2023-04-19T00:50:09.678Z,7.93
2023-04-19T00:52:37.154Z,7.22
2023-04-19T00:55:05.341Z,8.25
2023-04-19T00:57:32.472Z,7.45
2023-04-19T00:59:59.610Z,9.95
2023-04-19T01:02:28.484Z,12.82
2023-04-19T01:04:56.126Z,8.98
2023-04-19T01:07:23.208Z,11.70
2023-04-19T01:09:50.331Z,10.30
2023-04-19T01:12:17.232Z,7.75
2023-04-19T01:14:44.443Z,7.93
2023-04-19T01:17:13.628Z,7.85
2023-04-19T01:19:41.061Z,7.85
2023-04-19T01:22:08.306Z,8.23
2023-04-19T01:24:37.899Z,7.82
2023-04-19T01:27:04.821Z,8.98
2023-04-19T01:29:31.821Z,8.27
2023-04-19T01:31:58.781Z,12.13
2023-04-19T01:34:27.477Z,7.57
2023-04-19T01:36:54.421Z,7.10
2023-04-19T01:39:22.424Z,9.55
2023-04-19T01:41:49.617Z,8.48
2023-04-19T01:44:16.975Z,7.47
2023-04-19T01:46:44.074Z,9.55
2023-04-19T01:49:12.931Z,7.22
2023-04-19T01:51:39.921Z,9.55
2023-04-19T01:54:07.029Z,9.50
2023-04-19T01:56:34.069Z,7.70
2023-04-19T01:59:02.083Z,8.95
2023-04-19T02:01:30.730Z,7.63
2023-04-19T02:03:59.110Z,7.10
2023-04-19T02:06:27.071Z,8.23
2023-04-19T02:08:54.048Z,7.78
2023-04-19T02:11:20.993Z,7.78
2023-04-19T02:13:48.085Z,10.65
2023-04-19T02:16:15.006Z,7.53
2023-04-19T02:18:43.105Z,6.82
2023-04-19T02:21:13.103Z,12.45
2023-04-19T02:23:40.404Z,11.10
2023-04-19T02:26:09.536Z,7.97
2023-04-19T02:28:41.155Z,8.27
2023-04-19T02:31:08.449Z,8.73
2023-04-19T02:33:35.445Z,8.02
2023-04-19T02:36:02.690Z,11.07
2023-04-19T02:38:29.735Z,7.82
2023-04-19T02:40:56.807Z,6.57
2023-04-19T02:43:24.241Z,10.38
2023-04-19T02:45:51.602Z,9.13
2023-04-19T02:48:18.713Z,7.25
2023-04-19T02:50:45.982Z,10.07
2023-04-19T02:53:13.130Z,8.00
2023-04-19T02:55:41.069Z,5.75
2023-04-19T02:58:14.432Z,6.68
2023-04-19T03:00:51.234Z,7.93
2023-04-19T03:03:21.728Z,9.52
2023-04-19T03:05:48.874Z,13.70
2023-04-19T03:08:15.923Z,6.88
2023-04-19T03:10:45.314Z,8.15
2023-04-19T03:13:12.361Z,10.45
2023-04-19T03:15:39.301Z,9.55
2023-04-19T03:18:06.706Z,5.75
2023-04-19T03:20:35.124Z,9.80
2023-04-19T03:23:02.494Z,5.60
2023-04-19T03:25:30.205Z,8.18
2023-04-19T03:28:09.944Z,8.05
2023-04-19T03:31:12.042Z,9.15
2023-04-19T03:33:40.302Z,5.43
2023-04-19T03:36:07.662Z,8.88
2023-04-19T03:38:36.540Z,7.38
2023-04-19T03:41:05.450Z,6.82
2023-04-19T03:46:04.210Z,6.72
2023-04-19T03:48:31.338Z,9.10
2023-04-19T03:50:58.250Z,10.18
2023-04-19T03:53:26.001Z,6.65
2023-04-19T03:55:52.998Z,7.38
2023-04-19T03:58:19.989Z,7.35
2023-04-19T04:00:53.710Z,8.63
2023-04-19T04:03:20.867Z,7.90
2023-04-19T04:05:48.764Z,8.93
2023-04-19T04:08:15.912Z,6.70
2023-04-19T04:10:43.187Z,5.07
2023-04-19T04:13:10.525Z,8.35
2023-04-19T04:15:45.349Z,7.93
2023-04-19T04:18:13.688Z,7.38
2023-04-19T04:20:41.413Z,8.23
2023-04-19T04:23:10.921Z,7.03
2023-04-19T04:25:42.962Z,9.47
2023-04-19T04:28:13.538Z,10.60
2023-04-19T04:30:41.903Z,6.53
2023-04-19T04:33:12.178Z,8.15
2023-04-19T04:35:42.073Z,9.00
2023-04-19T04:38:23.982Z,10.68
2023-04-19T04:40:53.965Z,8.90
2023-04-19T04:43:25.848Z,6.95
2023-04-19T04:45:55.814Z,8.45
2023-04-19T04:48:24.410Z,6.45
2023-04-19T04:50:51.611Z,5.00
2023-04-19T04:53:18.919Z,6.53
2023-04-19T04:55:46.831Z,7.22
2023-04-19T04:58:14.458Z,6.15
2023-04-19T05:01:03.973Z,5.07
2023-04-19T05:06:05.537Z,9.45
2023-04-19T05:08:32.579Z,5.22
2023-04-19T05:11:14.657Z,7.68
2023-04-19T05:13:42.579Z,5.72
2023-04-19T05:16:09.679Z,5.40
2023-04-19T05:18:36.694Z,8.52
2023-04-19T05:21:05.071Z,7.32
2023-04-19T05:23:32.802Z,5.57
2023-04-19T05:25:59.894Z,7.10
2023-04-19T05:28:28.583Z,5.13
2023-04-19T05:31:07.301Z,5.57
2023-04-19T05:33:42.024Z,8.48
2023-04-19T05:36:10.206Z,4.85
2023-04-19T05:38:37.226Z,5.60
2023-04-19T05:41:06.620Z,4.97
2023-04-19T05:43:33.641Z,6.97
2023-04-19T05:46:01.890Z,4.65
2023-04-19T05:48:30.075Z,4.57
2023-04-19T05:51:17.486Z,5.35
2023-04-19T05:53:57.435Z,7.82
2023-04-19T05:56:25.662Z,5.82
2023-04-19T05:58:52.670Z,5.97
2023-04-19T06:01:19.704Z,4.55
2023-04-19T06:03:47.114Z,4.22
2023-04-19T06:06:14.545Z,4.72
2023-04-19T06:08:41.933Z,3.90
2023-04-19T06:11:20.154Z,4.45
2023-04-19T06:13:53.893Z,6.55
2023-04-19T06:16:22.231Z,3.13
2023-04-19T06:18:49.508Z,6.70
2023-04-19T06:21:17.643Z,3.72
2023-04-19T06:23:44.660Z,4.70
2023-04-19T06:26:11.688Z,7.88
2023-04-19T06:28:38.628Z,6.25
2023-04-19T06:31:05.849Z,6.32
2023-04-19T06:33:32.939Z,10.20
2023-04-19T06:36:00.069Z,5.43
2023-04-19T06:38:27.036Z,4.43
2023-04-19T06:40:54.094Z,5.50
2023-04-19T06:43:21.527Z,7.63
2023-04-19T06:45:49.904Z,7.20
2023-04-19T06:48:16.876Z,4.82
2023-04-19T06:50:43.816Z,4.28
2023-04-19T06:53:10.879Z,3.80
2023-04-19T06:55:37.823Z,3.60
2023-04-19T06:58:04.872Z,6.68
2023-04-19T07:00:32.028Z,5.15
2023-04-19T07:03:00.464Z,5.07
2023-04-19T07:05:28.044Z,3.33
2023-04-19T07:07:54.934Z,7.75
2023-04-19T07:10:21.972Z,4.75
2023-04-19T07:12:48.981Z,5.15
2023-04-19T07:15:16.068Z,4.85
2023-04-19T07:17:43.033Z,4.03
2023-04-19T07:20:10.331Z,5.25
2023-04-19T07:22:37.284Z,4.22
2023-04-19T07:25:04.541Z,4.05
2023-04-19T07:27:31.472Z,4.25
2023-04-19T07:29:58.570Z,3.83
2023-04-19T07:32:25.884Z,5.93
2023-04-19T07:34:53.159Z,3.65
2023-04-19T07:37:20.464Z,4.20
2023-04-19T07:39:47.428Z,7.90
2023-04-19T07:42:14.457Z,3.92
2023-04-19T07:44:41.413Z,4.75
2023-04-19T07:47:08.355Z,3.53
2023-04-19T07:49:35.421Z,7.55
2023-04-19T07:52:02.991Z,4.47
2023-04-19T07:54:30.452Z,4.15
2023-04-19T07:56:59.073Z,6.03
2023-04-19T07:59:26.843Z,4.35
2023-04-19T08:01:53.968Z,5.03
2023-04-19T08:04:23.254Z,3.17
2023-04-19T08:06:50.643Z,4.30
2023-04-19T08:09:17.704Z,3.80
2023-04-19T08:11:44.693Z,2.63
2023-04-19T08:14:28.412Z,4.70
2023-04-19T08:17:22.308Z,4.10
2023-04-19T08:19:46.017Z,4.55
2023-04-19T08:22:12.904Z,4.32
2023-04-19T08:24:41.457Z,3.17
2023-04-19T08:27:09.528Z,3.97
2023-04-19T08:29:37.300Z,3.03
2023-04-19T08:32:05.301Z,4.88
2023-04-19T08:34:34.677Z,4.03
2023-04-19T08:37:04.420Z,6.32
2023-04-19T08:39:33.994Z,4.00
2023-04-19T08:42:12.518Z,3.70
2023-04-19T08:47:32.264Z,4.93
2023-04-19T08:50:17.419Z,4.80
2023-04-19T08:52:56.147Z,5.32
2023-04-19T08:55:26.477Z,4.22
2023-04-19T08:57:53.592Z,3.45
2023-04-19T09:00:21.213Z,7.72
2023-04-19T09:02:53.405Z,4.70
2023-04-19T09:05:21.102Z,4.22
2023-04-19T09:07:48.594Z,4.20
2023-04-19T09:10:20.151Z,3.50
2023-04-19T09:13:04.128Z,3.45
2023-04-19T09:15:44.504Z,2.60
2023-04-19T09:18:11.944Z,3.60
2023-04-19T09:20:43.856Z,3.00
2023-04-19T09:23:13.961Z,4.07
2023-04-19T09:28:31.897Z,3.50
2023-04-19T09:31:10.512Z,5.47
2023-04-19T09:33:44.715Z,4.63
2023-04-19T09:36:14.607Z,3.88
2023-04-19T09:38:49.362Z,2.67
2023-04-19T09:41:18.271Z,3.15
2023-04-19T09:44:03.236Z,3.25
2023-04-19T09:46:33.531Z,2.25
2023-04-19T09:49:25.212Z,2.80
2023-04-19T09:52:05.485Z,3.30
2023-04-19T09:54:32.852Z,2.60
2023-04-19T09:57:01.726Z,3.35
2023-04-19T09:59:33.408Z,3.42
2023-04-19T10:02:02.193Z,5.32
2023-04-19T10:04:44.188Z,3.22
2023-04-19T10:09:54.341Z,2.38
2023-04-19T10:14:58.459Z,4.55
2023-04-19T10:17:26.540Z,1.63
2023-04-19T10:20:01.615Z,3.95
2023-04-19T10:22:28.823Z,3.83
2023-04-19T10:25:09.974Z,2.45
2023-04-19T10:27:37.373Z,1.50
2023-04-19T10:30:10.642Z,1.85
2023-04-19T10:32:44.935Z,1.65
2023-04-19T10:35:21.755Z,2.80
2023-04-19T10:38:06.344Z,1.95
2023-04-19T10:40:52.184Z,1.30
2023-04-19T10:43:19.988Z,5.43
2023-04-19T10:45:48.456Z,2.95
2023-04-19T10:48:30.676Z,2.45
2023-04-19T10:51:02.635Z,3.22
2023-04-19T10:53:45.902Z,2.22
2023-04-19T10:56:13.487Z,0.80
2023-04-19T10:59:02.732Z,5.10
2023-04-19T11:01:40.341Z,1.80
2023-04-19T11:04:09.521Z,5.88
2023-04-19T11:07:00.475Z,0.88
2023-04-19T11:09:34.882Z,1.38
2023-04-19T11:12:11.960Z,1.52
2023-04-19T11:14:40.671Z,1.88
2023-04-19T11:17:28.937Z,4.95
2023-04-19T11:20:03.566Z,2.05
2023-04-19T11:22:36.011Z,1.58
2023-04-19T11:25:07.815Z,0.70
2023-04-19T11:27:35.461Z,3.50
2023-04-19T11:30:07.631Z,1.52
2023-04-19T11:32:35.591Z,0.80
2023-04-19T11:35:09.976Z,1.60
2023-04-19T11:37:38.703Z,0.80
2023-04-19T11:40:09.494Z,6.35
2023-04-19T11:42:36.597Z,1.45
2023-04-19T11:45:03.970Z,4.13
2023-04-19T11:47:32.295Z,1.35
2023-04-19T11:50:37.179Z,2.47
2023-04-19T11:53:31.386Z,3.85
2023-04-19T11:56:09.481Z,7.05
2023-04-19T11:58:44.883Z,1.90
2023-04-19T12:01:14.175Z,1.27
2023-04-19T12:03:47.168Z,1.23
2023-04-19T12:06:17.073Z,1.85
2023-04-19T12:08:50.089Z,1.45
2023-04-19T12:11:22.171Z,2.55
2023-04-19T12:13:49.746Z,1.38
2023-04-19T12:16:28.827Z,3.53
2023-04-19T12:18:55.785Z,3.17
2023-04-19T12:21:29.426Z,0.85
2023-04-19T12:24:02.160Z,2.67
2023-04-19T12:26:29.553Z,1.20
2023-04-19T12:28:58.737Z,1.83
2023-04-19T12:31:26.159Z,1.10
2023-04-19T12:33:53.424Z,2.20
2023-04-19T12:36:21.128Z,1.40
2023-04-19T12:38:48.564Z,1.38
2023-04-19T12:41:15.601Z,1.77
2023-04-19T12:43:44.347Z,1.50
2023-04-19T12:46:11.587Z,1.23
2023-04-19T12:48:38.705Z,1.40
2023-04-19T12:51:06.155Z,2.15
2023-04-19T12:53:33.614Z,2.10
2023-04-19T12:56:00.851Z,0.75
2023-04-19T12:58:28.298Z,1.92
2023-04-19T13:00:58.725Z,2.25
2023-04-19T13:03:26.369Z,1.42
2023-04-19T13:05:57.338Z,1.58
2023-04-19T13:08:41.081Z,1.10
2023-04-19T13:11:14.360Z,1.55
2023-04-19T13:13:41.674Z,1.77
2023-04-19T13:16:09.048Z,1.23
2023-04-19T13:18:36.285Z,5.03
2023-04-19T13:21:08.042Z,1.02
2023-04-19T13:23:42.664Z,3.33
2023-04-19T13:26:09.887Z,2.00
2023-04-19T13:28:37.247Z,1.05
2023-04-19T13:31:05.644Z,5.55
2023-04-19T13:33:35.818Z,2.15
2023-04-19T13:36:03.226Z,3.50
2023-04-19T13:38:30.853Z,1.25
2023-04-19T13:41:01.212Z,0.77
2023-04-19T13:43:28.501Z,1.33
2023-04-19T13:45:57.288Z,1.63
2023-04-19T13:48:29.133Z,3.75
2023-04-19T13:50:56.894Z,2.67
2023-04-19T13:53:34.193Z,3.35
2023-04-19T13:56:04.936Z,1.50
2023-04-19T13:58:32.391Z,3.53
2023-04-19T14:01:05.616Z,1.10
2023-04-19T14:03:34.470Z,3.22
2023-04-19T14:06:01.645Z,2.78
2023-04-19T14:08:28.640Z,2.17
2023-04-19T14:10:55.598Z,1.10
2023-04-19T14:13:23.252Z,2.25
2023-04-19T14:15:50.285Z,3.20
2023-04-19T14:18:17.231Z,2.63
2023-04-19T14:20:44.290Z,7.50
2023-04-19T14:23:11.460Z,2.28
2023-04-19T14:25:38.579Z,1.75
2023-04-19T14:28:05.599Z,2.92
2023-04-19T14:30:32.745Z,2.40
2023-04-19T14:32:59.799Z,3.92
2023-04-19T14:35:27.325Z,2.13
2023-04-19T14:37:54.542Z,1.23
2023-04-19T14:40:21.526Z,1.48
2023-04-19T14:42:48.646Z,2.38
2023-04-19T14:45:15.739Z,2.67
2023-04-19T14:47:43.181Z,2.65
2023-04-19T14:50:10.603Z,2.60
2023-04-19T14:52:37.652Z,2.40
2023-04-19T14:55:04.963Z,2.35
2023-04-19T14:57:42.440Z,3.58
2023-04-19T15:00:10.147Z,1.55
2023-04-19T15:02:37.666Z,2.20
2023-04-19T15:05:05.899Z,2.92
2023-04-19T15:07:35.756Z,2.97
2023-04-19T15:10:02.952Z,5.93
2023-04-19T15:12:29.929Z,2.67
2023-04-19T15:14:59.628Z,1.77
2023-04-19T15:17:26.680Z,1.13
2023-04-19T15:19:53.809Z,1.63
2023-04-19T15:22:20.753Z,3.72
2023-04-19T15:24:47.766Z,3.25
2023-04-19T15:27:14.791Z,4.55
2023-04-19T15:29:42.068Z,1.35
2023-04-19T15:32:09.094Z,5.28
2023-04-19T15:34:36.225Z,2.60
2023-04-19T15:37:06.038Z,1.70
2023-04-19T15:39:33.171Z,2.80
2023-04-19T15:42:00.317Z,2.13
2023-04-19T15:44:27.408Z,3.15
2023-04-19T15:46:54.527Z,3.83
2023-04-19T15:49:21.455Z,2.80
2023-04-19T15:51:48.495Z,2.72
2023-04-19T15:54:15.784Z,4.75
2023-04-19T15:56:42.945Z,1.85
2023-04-19T15:59:10.024Z,3.28
2023-04-19T16:01:37.039Z,1.90
2023-04-19T16:04:04.439Z,1.67
2023-04-19T16:06:32.018Z,2.83
2023-04-19T16:08:59.108Z,1.77
2023-04-19T16:11:26.328Z,1.75
2023-04-19T16:13:53.516Z,2.15
2023-04-19T16:16:20.561Z,1.48
2023-04-19T16:18:47.749Z,7.13
2023-04-19T16:21:14.855Z,1.33
2023-04-19T16:23:44.225Z,1.88
2023-04-19T16:26:11.232Z,1.15
2023-04-19T16:28:38.150Z,1.95
2023-04-19T16:31:05.168Z,2.30
2023-04-19T16:33:32.096Z,2.03
2023-04-19T16:35:59.064Z,3.15
2023-04-19T16:38:26.082Z,1.50
2023-04-19T16:40:53.482Z,3.33
2023-04-19T16:43:20.966Z,4.00
2023-04-19T16:45:48.517Z,1.45
2023-04-19T16:48:17.006Z,2.20
2023-04-19T16:50:44.040Z,3.33
2023-04-19T16:53:11.597Z,6.05
2023-04-19T16:55:38.842Z,3.60
2023-04-19T16:58:05.766Z,2.88
2023-04-19T17:00:32.935Z,3.20
2023-04-19T17:03:00.231Z,1.45
2023-04-19T17:05:33.245Z,1.42
2023-04-19T17:08:00.841Z,2.75
2023-04-19T17:10:27.892Z,3.63
2023-04-19T17:12:55.770Z,2.88
2023-04-19T17:15:26.106Z,1.80
2023-04-19T17:17:53.313Z,2.03
2023-04-19T17:20:23.390Z,3.72
2023-04-19T17:22:56.587Z,3.15
2023-04-19T17:25:26.678Z,2.63
2023-04-19T17:27:57.731Z,4.22
2023-04-19T17:30:24.850Z,1.27
2023-04-19T17:32:57.730Z,2.20
2023-04-19T17:35:28.627Z,5.60
2023-04-19T17:38:00.251Z,3.33
2023-04-19T17:40:30.065Z,4.22
2023-04-19T17:42:57.406Z,1.92
2023-04-19T17:45:28.207Z,1.92
2023-04-19T17:47:59.600Z,2.05
2023-04-19T17:50:26.942Z,1.55
2023-04-19T17:52:55.110Z,3.72
2023-04-19T17:55:22.280Z,2.60
2023-04-19T17:57:49.314Z,4.03
2023-04-19T18:00:16.581Z,2.88
2023-04-19T18:02:47.116Z,1.02
2023-04-19T18:05:14.653Z,1.45
2023-04-19T18:07:43.111Z,2.97
2023-04-19T18:10:10.613Z,1.45
2023-04-19T18:12:37.756Z,1.52
2023-04-19T18:15:07.819Z,3.97
2023-04-19T18:17:36.075Z,1.58
2023-04-19T18:20:05.251Z,2.55
2023-04-19T18:22:32.979Z,1.70
2023-04-19T18:25:00.033Z,2.25
2023-04-19T18:27:26.956Z,1.60
2023-04-19T18:29:54.100Z,1.45
2023-04-19T18:32:23.408Z,2.08
2023-04-19T18:34:51.737Z,1.75
2023-04-19T18:37:19.368Z,1.90
2023-04-19T18:39:46.476Z,0.80
2023-04-19T18:42:14.477Z,1.10
2023-04-19T18:44:53.789Z,1.25
2023-04-19T18:47:24.194Z,2.35
2023-04-19T18:50:03.507Z,4.25
2023-04-19T18:52:38.543Z,5.07
2023-04-19T18:55:06.981Z,6.70
2023-04-19T18:57:35.756Z,1.10
2023-04-19T19:00:06.044Z,2.35
2023-04-19T19:02:38.430Z,1.88
2023-04-19T19:05:08.732Z,3.05
2023-04-19T19:07:37.838Z,3.53
2023-04-19T19:10:18.281Z,9.00
2023-04-19T19:12:46.235Z,2.78
2023-04-19T19:15:14.566Z,1.88
2023-04-19T19:17:42.600Z,2.55
2023-04-19T19:20:10.221Z,1.70
2023-04-19T19:22:38.758Z,0.80
2023-04-19T19:25:06.391Z,5.25
2023-04-19T19:27:36.470Z,3.35
2023-04-19T19:30:04.017Z,1.45
2023-04-19T19:32:31.696Z,3.42
2023-04-19T19:35:02.369Z,1.23
2023-04-19T19:37:30.282Z,1.75
2023-04-19T19:39:57.299Z,4.18
2023-04-19T19:42:25.061Z,2.63
2023-04-19T19:44:55.864Z,1.60
2023-04-19T19:47:24.462Z,1.45
2023-04-19T19:52:22.104Z,2.25
2023-04-19T19:54:49.068Z,2.75
2023-04-19T19:59:51.262Z,2.95
2023-04-19T20:02:22.447Z,4.65
2023-04-19T20:04:50.431Z,1.73
2023-04-19T20:07:33.218Z,2.20
2023-04-19T20:10:12.005Z,2.58
2023-04-19T20:12:41.983Z,1.33
2023-04-19T20:15:13.274Z,1.85
2023-04-19T20:17:44.005Z,1.38
2023-04-19T20:20:11.860Z,1.85
2023-04-19T20:22:38.860Z,3.28
2023-04-19T20:25:07.363Z,2.13
2023-04-19T20:27:35.224Z,1.77
2023-04-19T20:30:02.338Z,1.40
2023-04-19T20:32:30.959Z,3.03
2023-04-19T20:34:59.394Z,5.55
2023-04-19T20:37:27.251Z,2.47
2023-04-19T20:39:56.036Z,4.93
2023-04-19T20:42:23.513Z,6.40
2023-04-19T20:44:50.935Z,4.38
2023-04-19T20:47:19.118Z,1.00
2023-04-19T20:49:46.101Z,1.30
2023-04-19T20:52:13.150Z,5.63
2023-04-19T20:54:43.094Z,5.50
2023-04-19T20:57:10.982Z,1.17
2023-04-19T20:59:40.026Z,1.67
2023-04-19T21:02:08.491Z,2.67
2023-04-19T21:04:36.140Z,2.97
2023-04-19T21:07:03.934Z,7.88
2023-04-19T21:09:30.805Z,1.95
2023-04-19T21:11:58.425Z,4.03
2023-04-19T21:14:25.530Z,1.02
2023-04-19T21:16:52.571Z,2.25
2023-04-19T21:19:19.634Z,22.77
2023-04-19T21:21:46.664Z,4.55
2023-04-19T21:24:16.688Z,2.13
2023-04-19T21:26:44.392Z,2.92
2023-04-19T21:29:12.641Z,2.30
2023-04-19T21:31:39.843Z,2.03
2023-04-19T21:34:08.597Z,1.60
2023-04-19T21:36:35.700Z,1.58
2023-04-19T21:39:02.774Z,4.40
2023-04-19T21:41:30.323Z,3.88
2023-04-19T21:43:57.410Z,2.40
2023-04-19T21:46:24.444Z,1.92
2023-04-19T21:48:55.526Z,4.40
2023-04-19T21:51:23.219Z,6.60
2023-04-19T21:53:50.523Z,2.00
2023-04-19T21:56:17.507Z,4.80
2023-04-19T21:58:44.405Z,5.00
2023-04-19T22:01:11.394Z,3.78
2023-04-19T22:03:39.295Z,3.63
2023-04-19T22:06:06.900Z,4.22
2023-04-19T22:08:34.432Z,4.90
2023-04-19T22:11:01.722Z,2.58
2023-04-19T22:13:30.167Z,2.13
2023-04-19T22:15:57.263Z,2.90
2023-04-19T22:18:24.458Z,2.70
2023-04-19T22:20:52.048Z,3.17
2023-04-19T22:23:19.259Z,3.33
2023-04-19T22:25:46.319Z,1.20
2023-04-19T22:28:13.595Z,2.50
2023-04-19T22:30:40.989Z,2.10
2023-04-19T22:33:07.871Z,1.40
2023-04-19T22:35:34.861Z,2.10
2023-04-19T22:38:02.061Z,2.97
2023-04-19T22:40:29.126Z,3.22
2023-04-19T22:42:56.199Z,2.47
2023-04-19T22:45:24.552Z,3.42
2023-04-19T22:47:51.605Z,2.83
2023-04-19T22:50:18.653Z,1.83
2023-04-19T22:52:45.921Z,2.13
2023-04-19T22:55:12.984Z,2.55
2023-04-19T22:57:39.861Z,4.80
2023-04-19T23:00:08.368Z,3.83
2023-04-19T23:02:35.667Z,2.08
2023-04-19T23:05:02.629Z,4.55
2023-04-19T23:07:29.637Z,2.08
2023-04-19T23:09:57.325Z,3.65
2023-04-19T23:12:24.464Z,1.30
2023-04-19T23:14:52.522Z,3.42
2023-04-19T23:17:20.231Z,1.98
2023-04-19T23:19:47.235Z,2.33
2023-04-19T23:22:14.175Z,2.47
2023-04-19T23:24:41.165Z,2.35
2023-04-19T23:27:08.331Z,1.80
2023-04-19T23:29:35.321Z,4.10
2023-04-19T23:32:02.318Z,3.42
2023-04-19T23:34:29.308Z,1.80
2023-04-19T23:36:56.808Z,3.72
2023-04-19T23:39:23.788Z,5.68
2023-04-19T23:41:50.800Z,2.17
2023-04-19T23:44:17.697Z,2.97
2023-04-19T23:46:44.660Z,1.60
2023-04-19T23:49:12.123Z,3.50
2023-04-19T23:51:39.247Z,2.65
2023-04-19T23:54:06.221Z,1.35
2023-04-19T23:56:33.451Z,3.85
2023-04-19T23:59:00.411Z,2.47
